sensor_id;sensor_type;location;lat;lon;timestamp;P1;durP1;ratioP1;P2;durP2;ratioP2
63016;SDS011;50274;45.640;11.756;2023-05-07T00:01:53;6.55;;;3.53;;
63016;SDS011;50274;45.640;11.756;2023-05-07T00:04:19;5.22;;;3.13;;
63016;SDS011;50274;45.640;11.756;2023-05-07T00:06:45;7.00;;;3.57;;
63016;SDS011;50274;45.640;11.756;2023-05-07T00:09:11;5.90;;;3.00;;
63016;SDS011;50274;45.640;11.756;2023-05-07T00:11:37;6.55;;;3.33;;
63016;SDS011;50274;45.640;11.756;2023-05-07T00:14:03;7.13;;;3.67;;
63016;SDS011;50274;45.640;11.756;2023-05-07T00:16:29;6.40;;;3.38;;
63016;SDS011;50274;45.640;11.756;2023-05-07T00:18:55;6.72;;;3.47;;
63016;SDS011;50274;45.640;11.756;2023-05-07T00:21:21;6.72;;;3.58;;
63016;SDS011;50274;45.640;11.756;2023-05-07T00:23:47;5.70;;;3.70;;
63016;SDS011;50274;45.640;11.756;2023-05-07T00:26:13;7.18;;;3.67;;
63016;SDS011;50274;45.640;11.756;2023-05-07T00:28:38;5.90;;;3.47;;
63016;SDS011;50274;45.640;11.756;2023-05-07T00:31:04;8.40;;;3.87;;
63016;SDS011;50274;45.640;11.756;2023-05-07T00:33:30;8.00;;;3.88;;
63016;SDS011;50274;45.640;11.756;2023-05-07T00:35:56;7.37;;;3.90;;
63016;SDS011;50274;45.640;11.756;2023-05-07T00:38:22;6.70;;;3.78;;
63016;SDS011;50274;45.640;11.756;2023-05-07T00:40:47;6.10;;;3.97;;
63016;SDS011;50274;45.640;11.756;2023-05-07T00:43:13;7.57;;;4.10;;
63016;SDS011;50274;45.640;11.756;2023-05-07T00:45:40;7.57;;;3.78;;
63016;SDS011;50274;45.640;11.756;2023-05-07T00:48:05;7.30;;;4.00;;
63016;SDS011;50274;45.640;11.756;2023-05-07T00:50:31;7.70;;;4.10;;
63016;SDS011;50274;45.640;11.756;2023-05-07T00:52:58;6.47;;;3.88;;
63016;SDS011;50274;45.640;11.756;2023-05-07T00:55:25;5.95;;;3.55;;
63016;SDS011;50274;45.640;11.756;2023-05-07T00:57:51;6.65;;;3.67;;
63016;SDS011;50274;45.640;11.756;2023-05-07T01:00:17;6.00;;;3.80;;
63016;SDS011;50274;45.640;11.756;2023-05-07T01:02:43;5.65;;;3.75;;
63016;SDS011;50274;45.640;11.756;2023-05-07T01:05:12;7.43;;;3.80;;
63016;SDS011;50274;45.640;11.756;2023-05-07T01:07:43;6.45;;;3.55;;
63016;SDS011;50274;45.640;11.756;2023-05-07T01:10:09;6.57;;;4.18;;
63016;SDS011;50274;45.640;11.756;2023-05-07T01:12:37;6.53;;;3.80;;
63016;SDS011;50274;45.640;11.756;2023-05-07T01:15:04;7.38;;;4.53;;
63016;SDS011;50274;45.640;11.756;2023-05-07T01:17:35;7.47;;;4.38;;
63016;SDS011;50274;45.640;11.756;2023-05-07T01:20:04;7.60;;;4.57;;
63016;SDS011;50274;45.640;11.756;2023-05-07T01:22:34;6.82;;;4.10;;
63016;SDS011;50274;45.640;11.756;2023-05-07T01:25:04;7.03;;;4.20;;
63016;SDS011;50274;45.640;11.756;2023-05-07T01:27:31;7.65;;;4.60;;
63016;SDS011;50274;45.640;11.756;2023-05-07T01:29:58;7.95;;;4.55;;
63016;SDS011;50274;45.640;11.756;2023-05-07T01:32:43;7.90;;;4.20;;
63016;SDS011;50274;45.640;11.756;2023-05-07T01:35:18;7.47;;;4.25;;
63016;SDS011;50274;45.640;11.756;2023-05-07T01:37:47;7.50;;;4.40;;
63016;SDS011;50274;45.640;11.756;2023-05-07T01:40:14;8.25;;;4.25;;
63016;SDS011;50274;45.640;11.756;2023-05-07T01:42:41;7.15;;;4.35;;
63016;SDS011;50274;45.640;11.756;2023-05-07T01:45:08;6.95;;;4.30;;
63016;SDS011;50274;45.640;11.756;2023-05-07T01:47:35;8.05;;;4.47;;
63016;SDS011;50274;45.640;11.756;2023-05-07T01:50:02;9.47;;;4.40;;
63016;SDS011;50274;45.640;11.756;2023-05-07T01:52:30;8.15;;;4.68;;
63016;SDS011;50274;45.640;11.756;2023-05-07T01:54:56;8.18;;;5.00;;
63016;SDS011;50274;45.640;11.756;2023-05-07T01:57:22;7.27;;;4.77;;
63016;SDS011;50274;45.640;11.756;2023-05-07T01:59:48;6.97;;;4.55;;
63016;SDS011;50274;45.640;11.756;2023-05-07T02:02:14;6.88;;;4.50;;
63016;SDS011;50274;45.640;11.756;2023-05-07T02:04:40;7.28;;;5.05;;
63016;SDS011;50274;45.640;11.756;2023-05-07T02:07:06;6.50;;;4.50;;
63016;SDS011;50274;45.640;11.756;2023-05-07T02:09:31;7.10;;;4.97;;
63016;SDS011;50274;45.640;11.756;2023-05-07T02:11:57;7.93;;;4.93;;
63016;SDS011;50274;45.640;11.756;2023-05-07T02:14:23;7.45;;;4.95;;
63016;SDS011;50274;45.640;11.756;2023-05-07T02:16:49;7.70;;;4.80;;
63016;SDS011;50274;45.640;11.756;2023-05-07T02:19:15;9.67;;;4.47;;
63016;SDS011;50274;45.640;11.756;2023-05-07T02:21:40;8.77;;;5.07;;
63016;SDS011;50274;45.640;11.756;2023-05-07T02:24:06;8.52;;;4.57;;
63016;SDS011;50274;45.640;11.756;2023-05-07T02:26:32;8.20;;;4.73;;
63016;SDS011;50274;45.640;11.756;2023-05-07T02:28:59;9.30;;;5.43;;
63016;SDS011;50274;45.640;11.756;2023-05-07T02:31:24;9.23;;;4.60;;
63016;SDS011;50274;45.640;11.756;2023-05-07T02:33:50;9.60;;;5.17;;
63016;SDS011;50274;45.640;11.756;2023-05-07T02:36:16;6.55;;;4.30;;
63016;SDS011;50274;45.640;11.756;2023-05-07T02:38:42;8.05;;;4.80;;
63016;SDS011;50274;45.640;11.756;2023-05-07T02:41:08;7.93;;;4.40;;
63016;SDS011;50274;45.640;11.756;2023-05-07T02:43:34;6.45;;;4.47;;
63016;SDS011;50274;45.640;11.756;2023-05-07T02:46:00;9.05;;;4.63;;
63016;SDS011;50274;45.640;11.756;2023-05-07T02:48:31;10.50;;;5.40;;
63016;SDS011;50274;45.640;11.756;2023-05-07T02:50:58;7.75;;;5.20;;
63016;SDS011;50274;45.640;11.756;2023-05-07T02:53:24;7.57;;;5.22;;
63016;SDS011;50274;45.640;11.756;2023-05-07T02:55:57;8.68;;;5.40;;
63016;SDS011;50274;45.640;11.756;2023-05-07T02:58:24;8.93;;;5.30;;
63016;SDS011;50274;45.640;11.756;2023-05-07T03:00:50;8.17;;;5.07;;
63016;SDS011;50274;45.640;11.756;2023-05-07T03:03:16;6.78;;;4.60;;
63016;SDS011;50274;45.640;11.756;2023-05-07T03:05:42;7.82;;;5.20;;
63016;SDS011;50274;45.640;11.756;2023-05-07T03:08:08;7.90;;;4.87;;
63016;SDS011;50274;45.640;11.756;2023-05-07T03:10:35;8.60;;;5.60;;
63016;SDS011;50274;45.640;11.756;2023-05-07T03:13:01;11.30;;;5.10;;
63016;SDS011;50274;45.640;11.756;2023-05-07T03:15:27;7.70;;;5.00;;
63016;SDS011;50274;45.640;11.756;2023-05-07T03:17:53;7.47;;;4.90;;
63016;SDS011;50274;45.640;11.756;2023-05-07T03:20:18;7.35;;;5.07;;
63016;SDS011;50274;45.640;11.756;2023-05-07T03:22:44;9.30;;;5.53;;
63016;SDS011;50274;45.640;11.756;2023-05-07T03:25:10;7.47;;;4.83;;
63016;SDS011;50274;45.640;11.756;2023-05-07T03:27:36;7.43;;;5.25;;
63016;SDS011;50274;45.640;11.756;2023-05-07T03:30:03;7.40;;;4.85;;
63016;SDS011;50274;45.640;11.756;2023-05-07T03:32:31;8.18;;;5.65;;
63016;SDS011;50274;45.640;11.756;2023-05-07T03:34:57;7.53;;;5.17;;
63016;SDS011;50274;45.640;11.756;2023-05-07T03:37:23;9.30;;;5.80;;
63016;SDS011;50274;45.640;11.756;2023-05-07T03:39:49;7.18;;;4.80;;
63016;SDS011;50274;45.640;11.756;2023-05-07T03:42:15;8.87;;;5.23;;
63016;SDS011;50274;45.640;11.756;2023-05-07T03:44:41;7.88;;;5.50;;
63016;SDS011;50274;45.640;11.756;2023-05-07T03:47:06;7.85;;;5.43;;
63016;SDS011;50274;45.640;11.756;2023-05-07T03:49:33;8.33;;;5.30;;
63016;SDS011;50274;45.640;11.756;2023-05-07T03:51:58;8.07;;;5.32;;
63016;SDS011;50274;45.640;11.756;2023-05-07T03:54:24;9.60;;;4.95;;
63016;SDS011;50274;45.640;11.756;2023-05-07T03:56:50;8.13;;;4.90;;
63016;SDS011;50274;45.640;11.756;2023-05-07T03:59:16;8.93;;;5.80;;
63016;SDS011;50274;45.640;11.756;2023-05-07T04:01:42;7.18;;;4.97;;
63016;SDS011;50274;45.640;11.756;2023-05-07T04:04:08;7.43;;;5.20;;
63016;SDS011;50274;45.640;11.756;2023-05-07T04:06:33;9.43;;;5.93;;
63016;SDS011;50274;45.640;11.756;2023-05-07T04:08:59;9.02;;;5.32;;
63016;SDS011;50274;45.640;11.756;2023-05-07T04:11:26;6.57;;;4.87;;
63016;SDS011;50274;45.640;11.756;2023-05-07T04:13:51;7.50;;;6.03;;
63016;SDS011;50274;45.640;11.756;2023-05-07T04:16:17;8.57;;;5.57;;
63016;SDS011;50274;45.640;11.756;2023-05-07T04:18:43;8.63;;;6.07;;
63016;SDS011;50274;45.640;11.756;2023-05-07T04:21:15;7.30;;;5.03;;
63016;SDS011;50274;45.640;11.756;2023-05-07T04:23:42;8.30;;;5.65;;
63016;SDS011;50274;45.640;11.756;2023-05-07T04:26:08;8.98;;;5.72;;
63016;SDS011;50274;45.640;11.756;2023-05-07T04:28:34;8.20;;;5.57;;
63016;SDS011;50274;45.640;11.756;2023-05-07T04:31:00;10.45;;;5.40;;
63016;SDS011;50274;45.640;11.756;2023-05-07T04:33:26;8.43;;;5.18;;
63016;SDS011;50274;45.640;11.756;2023-05-07T04:35:52;7.53;;;5.67;;
63016;SDS011;50274;45.640;11.756;2023-05-07T04:38:18;7.07;;;5.05;;
63016;SDS011;50274;45.640;11.756;2023-05-07T04:40:44;9.35;;;6.10;;
63016;SDS011;50274;45.640;11.756;2023-05-07T04:43:10;8.40;;;5.00;;
63016;SDS011;50274;45.640;11.756;2023-05-07T04:45:36;17.33;;;9.05;;
63016;SDS011;50274;45.640;11.756;2023-05-07T04:48:02;18.42;;;8.40;;
63016;SDS011;50274;45.640;11.756;2023-05-07T04:50:28;21.65;;;11.70;;
63016;SDS011;50274;45.640;11.756;2023-05-07T04:52:53;24.67;;;10.53;;
63016;SDS011;50274;45.640;11.756;2023-05-07T04:55:19;22.85;;;10.93;;
63016;SDS011;50274;45.640;11.756;2023-05-07T04:57:48;20.60;;;9.95;;
63016;SDS011;50274;45.640;11.756;2023-05-07T05:00:15;15.57;;;8.23;;
63016;SDS011;50274;45.640;11.756;2023-05-07T05:02:41;15.90;;;8.55;;
63016;SDS011;50274;45.640;11.756;2023-05-07T05:05:08;15.98;;;8.40;;
63016;SDS011;50274;45.640;11.756;2023-05-07T05:07:33;14.60;;;8.27;;
63016;SDS011;50274;45.640;11.756;2023-05-07T05:10:02;13.98;;;8.10;;
63016;SDS011;50274;45.640;11.756;2023-05-07T05:12:30;14.03;;;8.37;;
63016;SDS011;50274;45.640;11.756;2023-05-07T05:14:58;12.00;;;7.30;;
63016;SDS011;50274;45.640;11.756;2023-05-07T05:17:24;17.00;;;8.02;;
63016;SDS011;50274;45.640;11.756;2023-05-07T05:19:52;13.15;;;8.10;;
63016;SDS011;50274;45.640;11.756;2023-05-07T05:22:18;14.60;;;8.67;;
63016;SDS011;50274;45.640;11.756;2023-05-07T05:24:44;21.20;;;9.07;;
63016;SDS011;50274;45.640;11.756;2023-05-07T05:27:10;20.27;;;10.05;;
63016;SDS011;50274;45.640;11.756;2023-05-07T05:29:39;13.87;;;7.80;;
63016;SDS011;50274;45.640;11.756;2023-05-07T05:32:05;13.85;;;7.43;;
63016;SDS011;50274;45.640;11.756;2023-05-07T05:34:33;12.73;;;7.88;;
63016;SDS011;50274;45.640;11.756;2023-05-07T05:36:59;17.98;;;8.88;;
63016;SDS011;50274;45.640;11.756;2023-05-07T05:39:30;13.73;;;7.82;;
63016;SDS011;50274;45.640;11.756;2023-05-07T05:41:56;12.43;;;7.50;;
63016;SDS011;50274;45.640;11.756;2023-05-07T05:44:22;12.10;;;7.60;;
63016;SDS011;50274;45.640;11.756;2023-05-07T05:46:47;14.10;;;8.32;;
63016;SDS011;50274;45.640;11.756;2023-05-07T05:49:14;10.30;;;6.40;;
63016;SDS011;50274;45.640;11.756;2023-05-07T05:51:43;10.48;;;7.22;;
63016;SDS011;50274;45.640;11.756;2023-05-07T05:54:09;10.48;;;6.53;;
63016;SDS011;50274;45.640;11.756;2023-05-07T05:56:36;10.95;;;7.20;;
63016;SDS011;50274;45.640;11.756;2023-05-07T05:59:04;10.90;;;8.03;;
63016;SDS011;50274;45.640;11.756;2023-05-07T06:01:30;11.30;;;7.35;;
63016;SDS011;50274;45.640;11.756;2023-05-07T06:03:57;11.88;;;6.90;;
63016;SDS011;50274;45.640;11.756;2023-05-07T06:06:22;10.10;;;7.03;;
63016;SDS011;50274;45.640;11.756;2023-05-07T06:08:48;8.77;;;6.47;;
63016;SDS011;50274;45.640;11.756;2023-05-07T06:11:14;10.63;;;7.70;;
63016;SDS011;50274;45.640;11.756;2023-05-07T06:13:40;11.67;;;7.33;;
63016;SDS011;50274;45.640;11.756;2023-05-07T06:16:06;10.43;;;7.15;;
63016;SDS011;50274;45.640;11.756;2023-05-07T06:18:32;11.77;;;7.20;;
63016;SDS011;50274;45.640;11.756;2023-05-07T06:21:01;10.65;;;7.60;;
63016;SDS011;50274;45.640;11.756;2023-05-07T06:23:27;11.37;;;8.33;;
63016;SDS011;50274;45.640;11.756;2023-05-07T06:25:53;12.55;;;8.13;;
63016;SDS011;50274;45.640;11.756;2023-05-07T06:28:18;10.63;;;7.32;;
63016;SDS011;50274;45.640;11.756;2023-05-07T06:30:45;9.20;;;6.67;;
63016;SDS011;50274;45.640;11.756;2023-05-07T06:33:15;10.32;;;7.07;;
63016;SDS011;50274;45.640;11.756;2023-05-07T06:35:43;10.98;;;6.80;;
63016;SDS011;50274;45.640;11.756;2023-05-07T06:38:09;10.30;;;7.50;;
63016;SDS011;50274;45.640;11.756;2023-05-07T06:40:37;9.77;;;6.53;;
63016;SDS011;50274;45.640;11.756;2023-05-07T06:43:05;10.03;;;6.47;;
63016;SDS011;50274;45.640;11.756;2023-05-07T06:45:31;9.55;;;6.03;;
63016;SDS011;50274;45.640;11.756;2023-05-07T06:47:57;8.20;;;5.38;;
63016;SDS011;50274;45.640;11.756;2023-05-07T06:50:22;9.80;;;5.20;;
63016;SDS011;50274;45.640;11.756;2023-05-07T06:52:48;7.10;;;4.70;;
63016;SDS011;50274;45.640;11.756;2023-05-07T06:55:14;8.82;;;5.15;;
63016;SDS011;50274;45.640;11.756;2023-05-07T06:57:40;7.73;;;4.97;;
63016;SDS011;50274;45.640;11.756;2023-05-07T07:00:06;7.32;;;4.45;;
63016;SDS011;50274;45.640;11.756;2023-05-07T07:02:35;7.20;;;4.50;;
63016;SDS011;50274;45.640;11.756;2023-05-07T07:05:01;6.93;;;4.05;;
63016;SDS011;50274;45.640;11.756;2023-05-07T07:07:27;6.87;;;4.03;;
63016;SDS011;50274;45.640;11.756;2023-05-07T07:09:56;7.70;;;4.70;;
63016;SDS011;50274;45.640;11.756;2023-05-07T07:12:22;7.10;;;3.70;;
63016;SDS011;50274;45.640;11.756;2023-05-07T07:14:49;5.93;;;3.73;;
63016;SDS011;50274;45.640;11.756;2023-05-07T07:17:15;6.30;;;3.35;;
63016;SDS011;50274;45.640;11.756;2023-05-07T07:19:41;8.25;;;3.72;;
63016;SDS011;50274;45.640;11.756;2023-05-07T07:22:09;6.37;;;3.57;;
63016;SDS011;50274;45.640;11.756;2023-05-07T07:24:35;6.20;;;3.60;;
63016;SDS011;50274;45.640;11.756;2023-05-07T07:27:01;6.55;;;4.03;;
63016;SDS011;50274;45.640;11.756;2023-05-07T07:29:27;6.97;;;4.13;;
63016;SDS011;50274;45.640;11.756;2023-05-07T07:31:52;8.73;;;4.25;;
63016;SDS011;50274;45.640;11.756;2023-05-07T07:34:18;8.30;;;4.30;;
63016;SDS011;50274;45.640;11.756;2023-05-07T07:36:44;6.80;;;3.87;;
63016;SDS011;50274;45.640;11.756;2023-05-07T07:39:10;5.00;;;3.20;;
63016;SDS011;50274;45.640;11.756;2023-05-07T07:41:40;7.05;;;4.00;;
63016;SDS011;50274;45.640;11.756;2023-05-07T07:44:06;8.05;;;3.90;;
63016;SDS011;50274;45.640;11.756;2023-05-07T07:46:33;6.40;;;3.43;;
63016;SDS011;50274;45.640;11.756;2023-05-07T07:48:59;6.70;;;4.20;;
63016;SDS011;50274;45.640;11.756;2023-05-07T07:51:25;6.50;;;3.60;;
63016;SDS011;50274;45.640;11.756;2023-05-07T07:53:51;6.60;;;3.17;;
63016;SDS011;50274;45.640;11.756;2023-05-07T07:56:17;5.87;;;3.10;;
63016;SDS011;50274;45.640;11.756;2023-05-07T07:58:46;5.55;;;3.28;;
63016;SDS011;50274;45.640;11.756;2023-05-07T08:01:12;5.87;;;3.27;;
63016;SDS011;50274;45.640;11.756;2023-05-07T08:03:41;6.10;;;3.50;;
63016;SDS011;50274;45.640;11.756;2023-05-07T08:06:06;5.60;;;3.38;;
63016;SDS011;50274;45.640;11.756;2023-05-07T08:08:32;7.80;;;3.30;;
63016;SDS011;50274;45.640;11.756;2023-05-07T08:10:58;6.30;;;3.10;;
63016;SDS011;50274;45.640;11.756;2023-05-07T08:13:24;5.72;;;3.10;;
63016;SDS011;50274;45.640;11.756;2023-05-07T08:15:53;6.53;;;3.08;;
63016;SDS011;50274;45.640;11.756;2023-05-07T08:18:19;5.85;;;3.20;;
63016;SDS011;50274;45.640;11.756;2023-05-07T08:20:45;5.83;;;3.30;;
63016;SDS011;50274;45.640;11.756;2023-05-07T08:23:11;5.95;;;3.53;;
63016;SDS011;50274;45.640;11.756;2023-05-07T08:25:39;8.15;;;3.83;;
63016;SDS011;50274;45.640;11.756;2023-05-07T08:28:10;6.65;;;3.65;;
63016;SDS011;50274;45.640;11.756;2023-05-07T08:30:36;6.30;;;3.60;;
63016;SDS011;50274;45.640;11.756;2023-05-07T08:33:02;6.05;;;3.40;;
63016;SDS011;50274;45.640;11.756;2023-05-07T08:35:28;6.32;;;3.58;;
63016;SDS011;50274;45.640;11.756;2023-05-07T08:37:54;5.77;;;3.60;;
63016;SDS011;50274;45.640;11.756;2023-05-07T08:40:20;8.32;;;3.45;;
63016;SDS011;50274;45.640;11.756;2023-05-07T08:42:52;7.00;;;3.58;;
63016;SDS011;50274;45.640;11.756;2023-05-07T08:45:19;6.50;;;3.15;;
63016;SDS011;50274;45.640;11.756;2023-05-07T08:47:52;7.53;;;2.90;;
63016;SDS011;50274;45.640;11.756;2023-05-07T08:50:28;6.25;;;2.85;;
63016;SDS011;50274;45.640;11.756;2023-05-07T08:52:57;6.20;;;3.22;;
63016;SDS011;50274;45.640;11.756;2023-05-07T08:55:30;6.07;;;3.03;;
63016;SDS011;50274;45.640;11.756;2023-05-07T08:57:55;5.40;;;2.85;;
63016;SDS011;50274;45.640;11.756;2023-05-07T09:00:21;5.87;;;2.80;;
63016;SDS011;50274;45.640;11.756;2023-05-07T09:02:47;5.80;;;2.50;;
63016;SDS011;50274;45.640;11.756;2023-05-07T09:05:13;5.25;;;2.50;;
63016;SDS011;50274;45.640;11.756;2023-05-07T09:07:42;5.60;;;2.80;;
63016;SDS011;50274;45.640;11.756;2023-05-07T09:10:11;5.93;;;2.70;;
63016;SDS011;50274;45.640;11.756;2023-05-07T09:12:38;5.90;;;2.60;;
63016;SDS011;50274;45.640;11.756;2023-05-07T09:15:05;7.50;;;2.75;;
63016;SDS011;50274;45.640;11.756;2023-05-07T09:17:33;5.72;;;2.75;;
63016;SDS011;50274;45.640;11.756;2023-05-07T09:20:04;6.25;;;2.85;;
63016;SDS011;50274;45.640;11.756;2023-05-07T09:22:35;5.40;;;2.67;;
63016;SDS011;50274;45.640;11.756;2023-05-07T09:25:11;6.32;;;2.83;;
63016;SDS011;50274;45.640;11.756;2023-05-07T09:27:42;4.97;;;2.85;;
63016;SDS011;50274;45.640;11.756;2023-05-07T09:30:13;6.25;;;2.83;;
63016;SDS011;50274;45.640;11.756;2023-05-07T09:32:49;6.00;;;3.13;;
63016;SDS011;50274;45.640;11.756;2023-05-07T09:35:19;5.53;;;3.20;;
63016;SDS011;50274;45.640;11.756;2023-05-07T09:37:49;9.10;;;3.20;;
63016;SDS011;50274;45.640;11.756;2023-05-07T09:40:21;6.20;;;3.15;;
63016;SDS011;50274;45.640;11.756;2023-05-07T09:42:48;5.97;;;3.65;;
63016;SDS011;50274;45.640;11.756;2023-05-07T09:45:21;8.65;;;3.45;;
63016;SDS011;50274;45.640;11.756;2023-05-07T09:47:53;6.03;;;3.00;;
63016;SDS011;50274;45.640;11.756;2023-05-07T09:50:26;6.30;;;3.47;;
63016;SDS011;50274;45.640;11.756;2023-05-07T09:52:54;6.65;;;3.58;;
63016;SDS011;50274;45.640;11.756;2023-05-07T09:55:23;6.43;;;3.38;;
63016;SDS011;50274;45.640;11.756;2023-05-07T09:57:52;6.45;;;3.17;;
63016;SDS011;50274;45.640;11.756;2023-05-07T10:00:19;7.73;;;3.90;;
63016;SDS011;50274;45.640;11.756;2023-05-07T10:02:49;6.43;;;3.50;;
63016;SDS011;50274;45.640;11.756;2023-05-07T10:05:20;6.63;;;3.80;;
63016;SDS011;50274;45.640;11.756;2023-05-07T10:07:47;7.32;;;4.65;;
63016;SDS011;50274;45.640;11.756;2023-05-07T10:10:13;6.35;;;3.80;;
63016;SDS011;50274;45.640;11.756;2023-05-07T10:12:41;7.10;;;3.70;;
63016;SDS011;50274;45.640;11.756;2023-05-07T10:15:10;7.57;;;3.70;;
63016;SDS011;50274;45.640;11.756;2023-05-07T10:17:37;7.65;;;4.50;;
63016;SDS011;50274;45.640;11.756;2023-05-07T10:20:07;8.60;;;4.47;;
63016;SDS011;50274;45.640;11.756;2023-05-07T10:22:51;7.57;;;4.50;;
63016;SDS011;50274;45.640;11.756;2023-05-07T10:25:21;6.77;;;4.23;;
63016;SDS011;50274;45.640;11.756;2023-05-07T10:27:50;9.18;;;5.30;;
63016;SDS011;50274;45.640;11.756;2023-05-07T10:33:23;7.85;;;5.00;;
63016;SDS011;50274;45.640;11.756;2023-05-07T10:35:51;8.45;;;4.35;;
63016;SDS011;50274;45.640;11.756;2023-05-07T10:38:24;6.30;;;3.83;;
63016;SDS011;50274;45.640;11.756;2023-05-07T10:40:50;8.23;;;4.78;;
63016;SDS011;50274;45.640;11.756;2023-05-07T10:43:16;7.50;;;4.70;;
63016;SDS011;50274;45.640;11.756;2023-05-07T10:45:42;8.05;;;4.13;;
63016;SDS011;50274;45.640;11.756;2023-05-07T10:52:05;8.83;;;4.70;;
63016;SDS011;50274;45.640;11.756;2023-05-07T10:54:49;9.82;;;5.00;;
63016;SDS011;50274;45.640;11.756;2023-05-07T10:57:42;9.20;;;5.80;;
63016;SDS011;50274;45.640;11.756;2023-05-07T11:05:41;7.77;;;4.47;;
63016;SDS011;50274;45.640;11.756;2023-05-07T11:08:07;9.30;;;5.75;;
63016;SDS011;50274;45.640;11.756;2023-05-07T11:10:53;7.55;;;4.65;;
63016;SDS011;50274;45.640;11.756;2023-05-07T11:16:22;7.60;;;4.82;;
63016;SDS011;50274;45.640;11.756;2023-05-07T11:18:49;9.10;;;4.90;;
63016;SDS011;50274;45.640;11.756;2023-05-07T11:21:35;7.38;;;4.82;;
63016;SDS011;50274;45.640;11.756;2023-05-07T11:24:05;7.97;;;5.07;;
63016;SDS011;50274;45.640;11.756;2023-05-07T11:29:12;10.65;;;6.95;;
63016;SDS011;50274;45.640;11.756;2023-05-07T11:31:42;9.17;;;5.63;;
63016;SDS011;50274;45.640;11.756;2023-05-07T11:34:08;8.70;;;5.30;;
63016;SDS011;50274;45.640;11.756;2023-05-07T11:36:35;10.48;;;6.90;;
63016;SDS011;50274;45.640;11.756;2023-05-07T11:39:22;9.10;;;7.15;;
63016;SDS011;50274;45.640;11.756;2023-05-07T11:41:52;14.85;;;9.57;;
63016;SDS011;50274;45.640;11.756;2023-05-07T11:44:18;11.20;;;8.07;;
63016;SDS011;50274;45.640;11.756;2023-05-07T11:46:43;8.30;;;6.47;;
63016;SDS011;50274;45.640;11.756;2023-05-07T11:49:10;9.68;;;7.20;;
63016;SDS011;50274;45.640;11.756;2023-05-07T11:51:36;10.33;;;8.07;;
63016;SDS011;50274;45.640;11.756;2023-05-07T11:54:03;10.50;;;7.63;;
63016;SDS011;50274;45.640;11.756;2023-05-07T11:56:34;12.10;;;8.98;;
63016;SDS011;50274;45.640;11.756;2023-05-07T11:59:00;11.15;;;7.53;;
63016;SDS011;50274;45.640;11.756;2023-05-07T12:01:27;8.63;;;6.20;;
63016;SDS011;50274;45.640;11.756;2023-05-07T12:03:52;10.00;;;8.13;;
63016;SDS011;50274;45.640;11.756;2023-05-07T12:06:18;12.88;;;8.00;;
63016;SDS011;50274;45.640;11.756;2023-05-07T12:08:47;12.27;;;7.78;;
63016;SDS011;50274;45.640;11.756;2023-05-07T12:11:14;11.80;;;8.10;;
63016;SDS011;50274;45.640;11.756;2023-05-07T12:13:50;11.68;;;8.93;;
63016;SDS011;50274;45.640;11.756;2023-05-07T12:16:16;11.52;;;8.00;;
63016;SDS011;50274;45.640;11.756;2023-05-07T12:18:44;9.27;;;6.95;;
63016;SDS011;50274;45.640;11.756;2023-05-07T12:21:11;10.63;;;8.07;;
63016;SDS011;50274;45.640;11.756;2023-05-07T12:23:38;8.33;;;6.57;;
63016;SDS011;50274;45.640;11.756;2023-05-07T12:26:05;11.98;;;7.10;;
63016;SDS011;50274;45.640;11.756;2023-05-07T12:28:31;10.13;;;7.55;;
63016;SDS011;50274;45.640;11.756;2023-05-07T12:31:02;8.88;;;5.55;;
63016;SDS011;50274;45.640;11.756;2023-05-07T12:33:28;9.77;;;7.60;;
63016;SDS011;50274;45.640;11.756;2023-05-07T12:35:57;11.43;;;7.67;;
63016;SDS011;50274;45.640;11.756;2023-05-07T12:38:27;11.93;;;7.88;;
63016;SDS011;50274;45.640;11.756;2023-05-07T12:41:03;11.05;;;7.70;;
63016;SDS011;50274;45.640;11.756;2023-05-07T12:43:31;9.15;;;7.10;;
63016;SDS011;50274;45.640;11.756;2023-05-07T12:45:58;10.65;;;7.43;;
63016;SDS011;50274;45.640;11.756;2023-05-07T12:48:26;12.03;;;6.90;;
63016;SDS011;50274;45.640;11.756;2023-05-07T12:51:01;10.18;;;7.30;;
63016;SDS011;50274;45.640;11.756;2023-05-07T12:53:28;7.80;;;6.13;;
63016;SDS011;50274;45.640;11.756;2023-05-07T12:55:55;11.70;;;7.93;;
63016;SDS011;50274;45.640;11.756;2023-05-07T12:58:27;10.70;;;6.65;;
63016;SDS011;50274;45.640;11.756;2023-05-07T13:00:54;8.77;;;6.77;;
63016;SDS011;50274;45.640;11.756;2023-05-07T13:03:36;9.05;;;6.20;;
63016;SDS011;50274;45.640;11.756;2023-05-07T13:06:08;9.10;;;6.10;;
63016;SDS011;50274;45.640;11.756;2023-05-07T13:08:40;10.52;;;7.35;;
63016;SDS011;50274;45.640;11.756;2023-05-07T13:11:10;12.90;;;7.70;;
63016;SDS011;50274;45.640;11.756;2023-05-07T13:13:37;7.97;;;5.70;;
63016;SDS011;50274;45.640;11.756;2023-05-07T13:16:07;9.13;;;6.22;;
63016;SDS011;50274;45.640;11.756;2023-05-07T13:18:36;9.75;;;6.72;;
63016;SDS011;50274;45.640;11.756;2023-05-07T13:21:06;8.05;;;5.68;;
63016;SDS011;50274;45.640;11.756;2023-05-07T13:23:31;8.27;;;5.72;;
63016;SDS011;50274;45.640;11.756;2023-05-07T13:26:03;12.50;;;6.10;;
63016;SDS011;50274;45.640;11.756;2023-05-07T13:28:31;8.77;;;6.30;;
63016;SDS011;50274;45.640;11.756;2023-05-07T13:30:57;9.82;;;6.40;;
63016;SDS011;50274;45.640;11.756;2023-05-07T13:33:23;9.07;;;6.00;;
63016;SDS011;50274;45.640;11.756;2023-05-07T13:35:51;8.73;;;6.45;;
63016;SDS011;50274;45.640;11.756;2023-05-07T13:38:17;13.23;;;8.37;;
63016;SDS011;50274;45.640;11.756;2023-05-07T13:40:43;10.10;;;7.32;;
63016;SDS011;50274;45.640;11.756;2023-05-07T13:43:09;9.00;;;6.80;;
63016;SDS011;50274;45.640;11.756;2023-05-07T13:45:35;10.33;;;7.37;;
63016;SDS011;50274;45.640;11.756;2023-05-07T13:48:01;11.45;;;7.15;;
63016;SDS011;50274;45.640;11.756;2023-05-07T13:50:27;8.68;;;6.05;;
63016;SDS011;50274;45.640;11.756;2023-05-07T13:52:54;11.73;;;7.53;;
63016;SDS011;50274;45.640;11.756;2023-05-07T13:55:23;9.43;;;7.20;;
63016;SDS011;50274;45.640;11.756;2023-05-07T13:57:56;10.65;;;7.22;;
63016;SDS011;50274;45.640;11.756;2023-05-07T14:00:23;9.77;;;7.22;;
63016;SDS011;50274;45.640;11.756;2023-05-07T14:02:52;9.75;;;7.07;;
63016;SDS011;50274;45.640;11.756;2023-05-07T14:05:19;8.97;;;6.27;;
63016;SDS011;50274;45.640;11.756;2023-05-07T14:07:47;12.70;;;8.68;;
63016;SDS011;50274;45.640;11.756;2023-05-07T14:10:14;10.13;;;6.78;;
63016;SDS011;50274;45.640;11.756;2023-05-07T14:12:42;9.70;;;6.97;;
63016;SDS011;50274;45.640;11.756;2023-05-07T14:15:12;8.87;;;6.20;;
63016;SDS011;50274;45.640;11.756;2023-05-07T14:17:40;9.68;;;6.95;;
63016;SDS011;50274;45.640;11.756;2023-05-07T14:20:11;10.40;;;6.60;;
63016;SDS011;50274;45.640;11.756;2023-05-07T14:22:37;12.32;;;7.38;;
63016;SDS011;50274;45.640;11.756;2023-05-07T14:25:06;10.48;;;7.88;;
63016;SDS011;50274;45.640;11.756;2023-05-07T14:27:32;10.50;;;7.80;;
63016;SDS011;50274;45.640;11.756;2023-05-07T14:29:58;9.27;;;6.82;;
63016;SDS011;50274;45.640;11.756;2023-05-07T14:32:26;9.95;;;7.50;;
63016;SDS011;50274;45.640;11.756;2023-05-07T14:34:52;12.30;;;6.93;;
63016;SDS011;50274;45.640;11.756;2023-05-07T14:37:18;9.57;;;7.27;;
63016;SDS011;50274;45.640;11.756;2023-05-07T14:39:45;10.00;;;7.72;;
63016;SDS011;50274;45.640;11.756;2023-05-07T14:42:10;10.60;;;7.75;;
63016;SDS011;50274;45.640;11.756;2023-05-07T14:44:40;11.30;;;7.93;;
63016;SDS011;50274;45.640;11.756;2023-05-07T14:47:06;10.05;;;6.38;;
63016;SDS011;50274;45.640;11.756;2023-05-07T14:49:33;9.83;;;7.03;;
63016;SDS011;50274;45.640;11.756;2023-05-07T14:51:59;9.80;;;6.20;;